Time;durP1;ratioP1;P1;durP2;ratioP2;P2;SDS_P1;SDS_P2;PMS_P1;PMS_P2;Temp;Humidity;BMP_temperature;BMP_pressure;BME280_temperature;BME280_humidity;BME280_pressure;Samples;Min_cycle;Max_cycle;Signal;HPM_P1;HPM_P2
2022/11/27 00:01:19;;;;;;;10.05;4.28;;;;;;;8.00;68.33;100869.59;5055826;28;20506;-81
2022/11/27 00:03:46;;;;;;;10.30;4.22;;;;;;;7.98;68.09;100860.94;5055884;28;20499;-81
2022/11/27 00:06:19;;;;;;;9.23;3.70;;;;;;;7.94;68.11;100865.41;5038386;28;20057;-81
2022/11/27 00:08:47;;;;;;;14.55;4.53;;;;;;;7.93;68.31;100855.81;5056117;28;20126;-80
2022/11/27 00:11:16;;;;;;;10.68;4.22;;;;;;;7.90;68.15;100855.03;5055966;28;20103;-81
2022/11/27 00:13:44;;;;;;;7.65;3.83;;;;;;;7.89;68.30;100862.03;5037912;28;20060;-81
2022/11/27 00:16:11;;;;;;;10.20;4.15;;;;;;;7.87;68.32;100869.09;5037912;28;20514;-81
2022/11/27 00:18:38;;;;;;;8.93;4.03;;;;;;;7.84;68.09;100861.31;5055739;28;20064;-80
2022/11/27 00:21:07;;;;;;;13.07;4.15;;;;;;;7.82;68.23;100857.88;5055790;28;20055;-80
2022/11/27 00:23:34;;;;;;;8.18;4.03;;;;;;;7.82;68.21;100850.03;5056005;28;20057;-80
2022/11/27 00:26:01;;;;;;;12.15;4.00;;;;;;;7.79;68.22;100842.25;5055844;28;20115;-80
2022/11/27 00:28:28;;;;;;;10.43;4.35;;;;;;;7.79;68.10;100844.84;5055439;28;20084;-80
2022/11/27 00:31:00;;;;;;;10.38;3.63;;;;;;;7.75;68.37;100840.59;5055863;28;20056;-81
2022/11/27 00:33:27;;;;;;;10.30;4.18;;;;;;;7.76;68.24;100839.69;5038157;28;20057;-80
2022/11/27 00:35:53;;;;;;;12.90;4.25;;;;;;;7.74;68.03;100844.97;5055804;28;20576;-80
2022/11/27 00:38:19;;;;;;;8.43;3.85;;;;;;;7.73;68.50;100840.63;5051496;28;20052;-81
2022/11/27 00:40:46;;;;;;;10.65;4.13;;;;;;;7.71;68.27;100844.22;5052215;28;20089;-81
2022/11/27 00:43:13;;;;;;;12.65;4.40;;;;;;;7.70;68.11;100843.34;5052797;28;20057;-80
2022/11/27 00:45:39;;;;;;;12.38;4.47;;;;;;;7.68;68.41;100845.16;5052292;28;20107;-80
2022/11/27 00:48:05;;;;;;;10.95;4.05;;;;;;;7.67;68.45;100839.03;5052275;28;20115;-80
2022/11/27 00:50:32;;;;;;;9.30;4.30;;;;;;;7.67;68.49;100825.94;5034484;28;20053;-80
2022/11/27 00:52:58;;;;;;;9.30;4.50;;;;;;;7.66;68.37;100824.22;5052325;28;20048;-80
2022/11/27 00:55:25;;;;;;;14.38;3.90;;;;;;;7.66;68.17;100832.09;5051866;28;20478;-80
2022/11/27 00:57:52;;;;;;;10.98;4.28;;;;;;;7.64;68.25;100828.66;5052075;28;20114;-80
2022/11/27 01:00:18;;;;;;;8.52;3.85;;;;;;;7.63;68.22;100834.78;5052369;28;20056;-80
2022/11/27 01:02:45;;;;;;;10.27;4.10;;;;;;;7.63;68.28;100839.19;5034484;28;20466;-80
2022/11/27 01:05:11;;;;;;;11.88;4.78;;;;;;;7.60;68.23;100834.88;5051973;28;20049;-80
2022/11/27 01:07:38;;;;;;;8.35;3.80;;;;;;;7.59;68.73;100830.53;5034139;28;20049;-80
2022/11/27 01:10:05;;;;;;;9.35;3.78;;;;;;;7.60;68.39;100831.41;5034125;28;20072;-80
2022/11/27 01:12:32;;;;;;;9.93;4.05;;;;;;;7.58;68.40;100820.94;5034120;28;20056;-80
2022/11/27 01:14:58;;;;;;;11.43;4.10;;;;;;;7.57;68.33;100834.97;5051671;28;20503;-80
2022/11/27 01:17:24;;;;;;;9.48;4.05;;;;;;;7.55;68.52;100832.38;5033900;28;20076;-80
2022/11/27 01:19:51;;;;;;;13.18;4.75;;;;;;;7.55;68.70;100826.28;5051791;28;20060;-80
2022/11/27 01:22:17;;;;;;;8.65;3.92;;;;;;;7.55;68.54;100826.28;5051907;28;20064;-80
2022/11/27 01:24:44;;;;;;;10.82;4.63;;;;;;;7.53;68.49;100818.47;5051718;28;20084;-80
2022/11/27 01:27:10;;;;;;;12.25;4.78;;;;;;;7.53;68.57;100815.84;5051720;28;20110;-80
2022/11/27 01:29:36;;;;;;;13.70;5.50;;;;;;;7.52;68.54;100813.28;5051774;28;20052;-80
2022/11/27 01:32:03;;;;;;;11.43;4.32;;;;;;;7.51;68.43;100808.94;5051812;28;20052;-80
2022/11/27 01:34:29;;;;;;;10.75;4.32;;;;;;;7.49;68.39;100802.88;5051373;28;20107;-80
2022/11/27 01:36:56;;;;;;;10.68;4.15;;;;;;;7.48;68.37;100794.13;5033381;28;20427;-81
2022/11/27 01:39:23;;;;;;;7.93;4.60;;;;;;;7.47;68.47;100796.81;5051397;28;20056;-80
2022/11/27 01:41:50;;;;;;;9.73;4.03;;;;;;;7.47;68.45;100796.81;5033697;28;20079;-80
2022/11/27 01:44:22;;;;;;;9.05;4.40;;;;;;;7.45;68.71;100803.84;5051505;28;20068;-80
2022/11/27 01:47:20;;;;;;;9.05;4.90;;;;;;;7.42;68.88;100805.66;5050946;28;20060;-81
2022/11/27 01:49:50;;;;;;;8.18;3.97;;;;;;;7.43;68.15;100794.28;5033262;28;20060;-81
2022/11/27 01:52:26;;;;;;;11.30;4.47;;;;;;;7.39;68.58;100787.41;5051331;28;20057;-80
2022/11/27 01:55:07;;;;;;;7.93;4.07;;;;;;;7.37;68.85;100786.56;5051006;28;20057;-80
2022/11/27 01:57:43;;;;;;;10.27;4.72;;;;;;;7.39;68.61;100776.06;5033052;28;20052;-80
2022/11/27 02:00:12;;;;;;;9.00;4.40;;;;;;;7.39;68.24;100776.06;5051553;28;20195;-80
2022/11/27 02:02:40;;;;;;;9.40;4.10;;;;;;;7.38;68.56;100767.34;5033443;28;20066;-80
2022/11/27 02:05:08;;;;;;;8.45;4.55;;;;;;;7.39;68.68;100770.81;5050803;28;20235;-80
2022/11/27 02:07:35;;;;;;;11.85;4.95;;;;;;;7.37;68.44;100759.53;5033016;28;20049;-80
2022/11/27 02:10:03;;;;;;;9.75;4.57;;;;;;;7.36;68.37;100757.81;5050808;28;20053;-80
2022/11/27 02:12:51;;;;;;;8.65;4.30;;;;;;;7.32;68.15;100757.03;5050662;28;20088;-80
2022/11/27 02:15:36;;;;;;;11.15;4.43;;;;;;;7.30;68.58;100746.59;5050618;28;20080;-80
2022/11/27 02:18:08;;;;;;;11.57;5.20;;;;;;;7.34;68.17;100750.00;5050425;28;20088;-80
2022/11/27 02:20:59;;;;;;;10.63;4.93;;;;;;;7.29;68.23;100747.50;5050669;28;20104;-80
2022/11/27 02:23:46;;;;;;;8.93;4.63;;;;;;;7.27;68.44;100743.22;5033101;28;20049;-80
2022/11/27 02:26:50;;;;;;;16.95;5.50;;;;;;;7.25;68.46;100742.41;5032508;28;20080;-80
2022/11/27 02:29:22;;;;;;;8.25;4.47;;;;;;;7.25;67.94;100743.25;5050442;28;20499;-80
2022/11/27 02:32:07;;;;;;;9.65;4.97;;;;;;;7.25;68.03;100735.38;5050435;28;20053;-80
2022/11/27 02:35:01;;;;;;;11.38;5.70;;;;;;;7.19;68.02;100732.06;5050399;28;20124;-80
2022/11/27 02:37:30;;;;;;;7.65;4.57;;;;;;;7.21;67.95;100717.19;5014757;28;20072;-80
2022/11/27 02:40:22;;;;;;;9.82;5.30;;;;;;;7.16;68.27;100722.56;5032651;28;20061;-80
2022/11/27 02:42:58;;;;;;;8.57;4.38;;;;;;;7.16;67.91;100728.66;5050331;28;20052;-80
2022/11/27 02:45:33;;;;;;;8.88;4.63;;;;;;;7.13;68.00;100720.88;5050237;28;20052;-80
2022/11/27 02:48:01;;;;;;;9.00;5.00;;;;;;;7.13;67.94;100731.34;5032134;28;20061;-80
2022/11/27 02:50:31;;;;;;;12.48;5.57;;;;;;;7.11;68.12;100727.06;5050338;28;20049;-80
2022/11/27 02:53:02;;;;;;;10.38;5.68;;;;;;;7.09;68.03;100718.38;5050271;28;20115;-80
2022/11/27 02:55:32;;;;;;;10.20;5.45;;;;;;;7.06;68.23;100714.06;5032053;28;20099;-81
2022/11/27 02:58:00;;;;;;;12.40;5.28;;;;;;;7.03;68.16;100695.84;5049617;28;20061;-80
2022/11/27 03:00:29;;;;;;;7.07;5.03;;;;;;;7.02;67.86;100701.97;5031611;28;20066;-80
2022/11/27 03:03:00;;;;;;;9.23;5.30;;;;;;;7.00;68.07;100698.56;5050092;28;20465;-80
2022/11/27 03:05:31;;;;;;;8.20;4.88;;;;;;;6.99;67.97;100695.06;5032305;28;20102;-80
2022/11/27 03:08:12;;;;;;;10.70;5.35;;;;;;;6.97;67.76;100694.25;5049922;28;20060;-80
2022/11/27 03:11:14;;;;;;;11.02;4.57;;;;;;;6.95;68.06;100698.66;5049887;28;20450;-80
2022/11/27 03:13:45;;;;;;;7.50;5.32;;;;;;;6.99;67.95;100704.69;5007681;28;20440;-80
2022/11/27 03:16:23;;;;;;;10.02;5.38;;;;;;;6.99;67.97;100689.81;5042372;28;20057;-80
2022/11/27 03:19:02;;;;;;;11.38;5.05;;;;;;;6.99;67.85;100681.13;5049576;28;20053;-80
2022/11/27 03:21:34;;;;;;;7.22;4.97;;;;;;;6.98;67.98;100682.00;5049754;28;20057;-80
2022/11/27 03:24:01;;;;;;;7.57;5.00;;;;;;;6.97;67.64;100682.91;5049754;28;20075;-81
2022/11/27 03:26:28;;;;;;;8.75;5.40;;;;;;;6.95;67.85;100680.34;5031976;28;20057;-80
2022/11/27 03:28:55;;;;;;;9.65;5.10;;;;;;;6.95;67.91;100674.25;5031834;28;20052;-80
2022/11/27 03:31:22;;;;;;;9.07;4.90;;;;;;;6.93;67.54;100671.69;5049696;28;20395;-80
2022/11/27 03:33:50;;;;;;;8.50;5.45;;;;;;;6.93;67.81;100676.91;5049627;28;20422;-80
2022/11/27 03:36:19;;;;;;;9.57;4.88;;;;;;;6.90;67.46;100677.88;5031896;28;20052;-80
2022/11/27 03:38:48;;;;;;;6.95;4.60;;;;;;;6.90;67.49;100677.88;5049586;28;20060;-80
2022/11/27 03:41:20;;;;;;;10.70;4.75;;;;;;;6.90;67.32;100683.09;5049614;28;20049;-80
2022/11/27 03:44:22;;;;;;;7.85;4.85;;;;;;;6.85;66.98;100679.75;5049661;28;20052;-80
2022/11/27 03:47:26;;;;;;;6.38;4.57;;;;;;;6.85;67.40;100679.75;5033438;28;20065;-80
2022/11/27 03:50:04;;;;;;;10.48;4.90;;;;;;;6.85;67.10;100679.75;5049502;28;20052;-80
2022/11/27 03:53:12;;;;;;;12.85;4.70;;;;;;;6.79;67.09;100682.50;5049385;28;20049;-80
2022/11/27 03:55:48;;;;;;;12.00;4.65;;;;;;;6.81;67.40;100688.56;5049320;28;20499;-80
2022/11/27 03:58:33;;;;;;;6.88;4.65;;;;;;;6.74;67.04;100679.16;5049235;28;20056;-80
2022/11/27 04:01:03;;;;;;;10.80;4.65;;;;;;;6.74;67.27;100682.66;5049713;28;20061;-80
2022/11/27 04:03:30;;;;;;;10.50;4.85;;;;;;;6.72;67.25;100686.19;5049562;28;20498;-80
2022/11/27 04:05:57;;;;;;;7.68;4.50;;;;;;;6.71;67.26;100687.09;5031537;28;20491;-80
2022/11/27 04:08:24;;;;;;;8.10;5.00;;;;;;;6.69;67.09;100675.81;5031720;28;20064;-80
2022/11/27 04:10:50;;;;;;;8.60;4.28;;;;;;;6.68;67.29;100679.31;5049165;28;20057;-80
2022/11/27 04:13:16;;;;;;;7.80;4.55;;;;;;;6.66;67.16;100687.22;5034135;28;20049;-80
2022/11/27 04:15:43;;;;;;;7.78;4.57;;;;;;;6.65;67.25;100675.88;5053101;28;20045;-80
2022/11/27 04:18:09;;;;;;;9.10;4.75;;;;;;;6.64;67.27;100666.31;5053229;28;20065;-80
2022/11/27 04:20:36;;;;;;;7.50;3.67;;;;;;;6.64;67.08;100660.22;5035263;28;20112;-80
2022/11/27 04:23:02;;;;;;;9.05;4.38;;;;;;;6.63;66.78;100666.34;5035096;28;20111;-80
2022/11/27 04:25:28;;;;;;;6.18;4.00;;;;;;;6.62;67.18;100664.66;5052914;28;20067;-80
2022/11/27 04:27:55;;;;;;;9.60;4.35;;;;;;;6.61;67.21;100655.94;5052560;28;20080;-80
2022/11/27 04:30:22;;;;;;;7.68;4.47;;;;;;;6.60;67.28;100648.97;5052652;28;20057;-80
2022/11/27 04:32:48;;;;;;;10.02;4.47;;;;;;;6.58;66.98;100637.69;5052860;28;20059;-80
2022/11/27 04:35:15;;;;;;;9.52;5.00;;;;;;;6.58;67.04;100645.53;5052286;28;20437;-80
2022/11/27 04:37:41;;;;;;;8.20;4.80;;;;;;;6.57;67.18;100646.44;5052404;28;20065;-80
2022/11/27 04:40:08;;;;;;;8.20;4.82;;;;;;;6.57;66.73;100627.25;5052472;28;20057;-80
2022/11/27 04:42:35;;;;;;;7.38;4.15;;;;;;;6.54;67.05;100622.97;5034732;28;20083;-80
2022/11/27 04:45:01;;;;;;;8.45;4.05;;;;;;;6.53;66.82;100625.66;5034497;28;20514;-80
2022/11/27 04:47:27;;;;;;;6.18;4.20;;;;;;;6.51;66.82;100615.22;5052700;28;20060;-80
2022/11/27 04:49:54;;;;;;;5.85;4.05;;;;;;;6.49;66.76;100609.16;5052573;28;20057;-80
2022/11/27 04:52:20;;;;;;;8.18;3.88;;;;;;;6.48;66.91;100603.09;5034524;28;20430;-80
2022/11/27 04:54:46;;;;;;;8.88;4.10;;;;;;;6.47;67.17;100606.56;5052068;28;20056;-80
2022/11/27 04:57:13;;;;;;;7.85;4.45;;;;;;;6.47;67.24;100603.13;5051937;28;20522;-80
2022/11/27 04:59:39;;;;;;;7.20;3.92;;;;;;;6.48;67.09;100608.31;5162472;22;20059;-84
2022/11/27 05:02:06;;;;;;;7.55;3.95;;;;;;;6.49;67.22;100601.31;5035014;28;20055;-82
2022/11/27 05:04:32;;;;;;;9.07;3.55;;;;;;;6.51;67.19;100602.16;5052951;28;20061;-83
2022/11/27 05:06:59;;;;;;;6.72;4.07;;;;;;;6.52;67.34;100593.41;5052229;28;20100;-81
2022/11/27 05:09:26;;;;;;;6.63;3.67;;;;;;;6.54;67.07;100588.13;5052621;28;20055;-82
2022/11/27 05:11:52;;;;;;;7.55;3.95;;;;;;;6.55;67.40;100582.84;5052696;28;20061;-84
2022/11/27 05:14:20;;;;;;;7.63;3.67;;;;;;;6.56;67.02;100574.09;5052704;28;20441;-83
2022/11/27 05:16:53;;;;;;;7.05;3.75;;;;;;;6.57;66.93;100572.31;5052199;28;20055;-83
2022/11/27 05:19:21;;;;;;;8.82;4.28;;;;;;;6.60;67.05;100565.28;5052459;28;20061;-83
2022/11/27 05:21:49;;;;;;;10.73;4.30;;;;;;;6.63;67.10;100566.94;5052431;28;20061;-82
2022/11/27 05:24:17;;;;;;;8.95;4.35;;;;;;;6.64;66.79;100564.28;5051895;28;20065;-83
2022/11/27 05:26:44;;;;;;;7.63;4.28;;;;;;;6.66;67.25;100564.25;5052146;28;20063;-83
2022/11/27 05:29:11;;;;;;;9.50;3.80;;;;;;;6.68;67.03;100559.81;5052344;28;20140;-81
2022/11/27 05:31:38;;;;;;;9.63;4.43;;;;;;;6.69;66.70;100551.06;5052561;28;20049;-83
2022/11/27 05:34:06;;;;;;;7.82;3.85;;;;;;;6.70;67.04;100547.56;5052354;28;20067;-83
2022/11/27 05:36:33;;;;;;;12.80;4.25;;;;;;;6.71;66.65;100553.63;5051746;28;20524;-81
2022/11/27 05:39:02;;;;;;;6.90;3.65;;;;;;;6.72;66.67;100550.13;5052179;28;20060;-83
2022/11/27 05:41:28;;;;;;;8.30;4.57;;;;;;;6.73;66.73;100546.63;5052041;28;20486;-84
2022/11/27 05:43:55;;;;;;;8.35;3.65;;;;;;;6.74;66.29;100553.56;5034095;28;20528;-81
2022/11/27 05:46:22;;;;;;;10.57;4.18;;;;;;;6.73;66.14;100551.84;5050630;28;20497;-83
2022/11/27 05:48:49;;;;;;;5.88;3.50;;;;;;;6.73;66.09;100557.94;5052032;28;20057;-84
2022/11/27 05:51:16;;;;;;;6.32;3.70;;;;;;;6.73;66.03;100557.09;5052055;28;20061;-80
2022/11/27 05:53:43;;;;;;;6.85;3.85;;;;;;;6.73;66.12;100557.09;5051930;28;20640;-83
2022/11/27 05:56:13;;;;;;;5.70;3.67;;;;;;;6.71;65.70;100557.13;5051581;28;20053;-81
2022/11/27 05:58:40;;;;;;;6.93;4.10;;;;;;;6.71;65.78;100544.03;5051554;28;20052;-84
2022/11/27 06:01:09;;;;;;;8.48;4.32;;;;;;;6.70;65.93;100542.34;5034095;28;20053;-83
2022/11/27 06:03:37;;;;;;;6.60;3.78;;;;;;;6.70;65.88;100544.09;5051764;28;20486;-84
2022/11/27 06:06:09;;;;;;;7.85;4.10;;;;;;;6.68;65.67;100551.97;5033816;28;20503;-82
2022/11/27 06:08:37;;;;;;;7.07;3.90;;;;;;;6.68;65.70;100546.75;5033758;28;20493;-83
2022/11/27 06:11:20;;;;;;;4.85;3.20;;;;;;;6.68;65.52;100551.09;5051551;28;20152;-84
2022/11/27 06:13:48;;;;;;;7.55;3.50;;;;;;;6.71;65.83;100540.56;5051781;28;20653;-84
2022/11/27 06:16:17;;;;;;;9.45;4.03;;;;;;;6.69;65.56;100540.59;5051193;28;20632;-84
2022/11/27 06:18:44;;;;;;;6.38;3.67;;;;;;;6.71;66.06;100554.50;5051204;28;20114;-83
2022/11/27 06:21:13;;;;;;;7.32;4.25;;;;;;;6.72;65.44;100548.38;5051508;28;20508;-84
2022/11/27 06:23:41;;;;;;;5.70;3.72;;;;;;;6.73;65.67;100549.25;5051561;28;20135;-83
2022/11/27 06:26:19;;;;;;;9.10;4.18;;;;;;;6.72;64.93;100550.13;5033607;28;20064;-83
2022/11/27 06:28:47;;;;;;;11.75;4.82;;;;;;;6.75;65.44;100550.03;5051263;28;20067;-84
2022/11/27 06:31:17;;;;;;;7.25;3.85;;;;;;;6.74;65.02;100546.59;5051307;28;20061;-82
2022/11/27 06:33:45;;;;;;;8.38;4.65;;;;;;;6.77;65.52;100550.88;5051162;28;20057;-84
2022/11/27 06:36:12;;;;;;;8.15;4.13;;;;;;;6.77;65.48;100540.41;5032581;28;20065;-83
2022/11/27 06:38:39;;;;;;;7.32;4.20;;;;;;;6.77;65.52;100537.78;5051033;28;20057;-83
2022/11/27 06:41:08;;;;;;;8.13;4.68;;;;;;;6.78;65.10;100539.50;5049840;28;20178;-84
2022/11/27 06:43:35;;;;;;;8.30;5.30;;;;;;;6.80;65.34;100534.22;5050972;28;20096;-85
2022/11/27 06:46:03;;;;;;;7.25;4.53;;;;;;;6.80;65.56;100535.06;5051357;28;20055;-83
2022/11/27 06:48:30;;;;;;;10.48;4.88;;;;;;;6.81;64.83;100528.94;5050535;28;20053;-83
2022/11/27 06:51:02;;;;;;;9.52;4.85;;;;;;;6.80;64.80;100529.81;5050798;28;20095;-82
2022/11/27 06:53:29;;;;;;;8.30;4.82;;;;;;;6.82;65.17;100522.81;5050900;28;20060;-83
2022/11/27 06:55:56;;;;;;;7.97;4.85;;;;;;;6.83;64.99;100526.25;5032901;28;20083;-84
2022/11/27 06:58:23;;;;;;;6.63;4.63;;;;;;;6.84;65.25;100528.84;5050494;28;20056;-81
2022/11/27 07:01:01;;;;;;;11.23;5.20;;;;;;;6.83;64.88;100524.50;5033912;28;20057;-84
2022/11/27 07:03:28;;;;;;;9.82;5.15;;;;;;;6.87;65.24;100525.28;5050744;28;20057;-83
2022/11/27 07:05:59;;;;;;;8.20;4.95;;;;;;;6.87;64.63;100526.13;5050364;28;20065;-81
2022/11/27 07:08:26;;;;;;;12.45;5.03;;;;;;;6.90;64.94;100527.81;5032756;28;20057;-81
2022/11/27 07:10:53;;;;;;;8.43;5.03;;;;;;;6.91;64.89;100522.53;5050415;28;20052;-81
2022/11/27 07:13:19;;;;;;;9.38;5.50;;;;;;;6.92;64.80;100518.16;5050429;28;20477;-83
2022/11/27 07:15:46;;;;;;;8.32;4.82;;;;;;;6.93;64.76;100504.16;5050359;28;20152;-81
2022/11/27 07:18:12;;;;;;;10.38;5.30;;;;;;;6.95;65.13;100504.13;5050244;28;20052;-83
2022/11/27 07:20:39;;;;;;;7.95;5.13;;;;;;;6.97;65.04;100504.94;5050323;28;20137;-83
2022/11/27 07:23:05;;;;;;;8.60;5.50;;;;;;;6.99;65.06;100503.13;5050453;28;20061;-85
2022/11/27 07:25:32;;;;;;;11.20;5.13;;;;;;;7.01;65.05;100498.69;5050316;28;20068;-83
2022/11/27 07:27:58;;;;;;;10.23;5.53;;;;;;;7.03;64.70;100505.59;5050190;28;20060;-82
2022/11/27 07:30:25;;;;;;;7.72;5.32;;;;;;;7.06;64.75;100502.03;5050570;28;20057;-83
2022/11/27 07:32:51;;;;;;;9.90;5.63;;;;;;;7.09;64.73;100504.56;5050231;28;20541;-83
2022/11/27 07:35:18;;;;;;;7.95;5.43;;;;;;;7.12;64.54;100501.00;5050218;28;20060;-83
2022/11/27 07:37:44;;;;;;;11.38;5.28;;;;;;;7.14;64.88;100497.41;5050162;28;20123;-83
2022/11/27 07:40:11;;;;;;;8.80;5.35;;;;;;;7.17;64.71;100504.31;5050113;28;20143;-82
2022/11/27 07:42:40;;;;;;;9.70;5.50;;;;;;;7.21;64.72;100508.56;5050214;28;20057;-84
2022/11/27 07:45:08;;;;;;;9.77;5.80;;;;;;;7.24;64.37;100512.84;5050266;28;20049;-82
2022/11/27 07:47:35;;;;;;;9.55;5.18;;;;;;;7.28;64.81;100503.97;5053523;28;20052;-83
2022/11/27 07:50:01;;;;;;;8.38;4.80;;;;;;;7.31;64.94;100493.41;5054305;28;20135;-83
2022/11/27 07:52:28;;;;;;;8.95;4.95;;;;;;;7.34;64.68;100495.94;5054136;28;20143;-82
2022/11/27 07:54:54;;;;;;;9.13;5.28;;;;;;;7.39;64.39;100485.31;5054086;28;20065;-82
2022/11/27 07:57:21;;;;;;;8.40;4.70;;;;;;;7.43;64.22;100481.69;5036124;28;20045;-84
2022/11/27 07:59:47;;;;;;;9.70;5.13;;;;;;;7.46;64.15;100470.25;5053896;28;20080;-83
2022/11/27 08:02:14;;;;;;;10.40;5.20;;;;;;;7.49;64.63;100481.50;5053863;28;20061;-81
2022/11/27 08:04:41;;;;;;;9.27;5.53;;;;;;;7.53;63.95;100479.63;5053945;28;20099;-82
2022/11/27 08:07:08;;;;;;;8.73;5.22;;;;;;;7.56;64.20;100466.44;5053583;28;20499;-83
2022/11/27 08:09:34;;;;;;;8.68;4.78;;;;;;;7.59;64.04;100471.56;5053860;28;20143;-81
2022/11/27 08:12:01;;;;;;;12.70;5.38;;;;;;;7.62;63.88;100471.47;5035900;28;20079;-82
2022/11/27 08:14:27;;;;;;;11.27;5.68;;;;;;;7.64;63.97;100469.66;5053759;28;20053;-82
2022/11/27 08:16:54;;;;;;;8.50;5.35;;;;;;;7.68;63.79;100462.56;5053402;28;20053;-82
2022/11/27 08:19:21;;;;;;;8.25;5.22;;;;;;;7.71;63.90;100462.47;5035981;28;20083;-81
2022/11/27 08:21:47;;;;;;;8.85;5.20;;;;;;;7.74;64.09;100467.56;5053594;28;20136;-83
2022/11/27 08:24:14;;;;;;;11.68;5.93;;;;;;;7.79;63.66;100472.66;5053559;28;20135;-81
2022/11/27 08:26:41;;;;;;;9.88;5.70;;;;;;;7.81;63.46;100455.97;5035423;28;20052;-82
2022/11/27 08:29:11;;;;;;;8.25;4.95;;;;;;;7.84;63.08;100467.28;5053685;28;20141;-81
2022/11/27 08:31:37;;;;;;;8.23;5.20;;;;;;;7.88;63.48;100447.91;5053649;28;20053;-80
2022/11/27 08:34:04;;;;;;;11.70;5.55;;;;;;;7.91;63.16;100448.66;5035662;28;20122;-82
2022/11/27 08:36:31;;;;;;;10.88;4.90;;;;;;;7.95;63.38;100444.16;5053119;28;20088;-83
2022/11/27 08:38:58;;;;;;;8.48;4.90;;;;;;;7.99;63.44;100439.69;5053277;28;20055;-83
2022/11/27 08:41:24;;;;;;;9.15;5.38;;;;;;;8.01;63.07;100438.72;5053372;28;20053;-81
2022/11/27 08:43:52;;;;;;;11.25;5.55;;;;;;;8.04;63.09;100443.84;5053358;28;20756;-83
2022/11/27 08:46:18;;;;;;;9.32;5.13;;;;;;;8.05;62.85;100442.06;5053245;28;20057;-81
2022/11/27 08:48:45;;;;;;;8.23;5.40;;;;;;;8.07;62.89;100433.25;5035539;28;20094;-83
2022/11/27 08:51:14;;;;;;;8.27;5.75;;;;;;;8.10;62.97;100424.41;5035458;28;20049;-83
2022/11/27 08:53:43;;;;;;;9.77;5.70;;;;;;;8.14;63.23;100426.00;5053276;28;20539;-82
2022/11/27 08:56:17;;;;;;;9.80;6.00;;;;;;;8.16;61.98;100426.81;5052798;28;20076;-81
2022/11/27 08:58:44;;;;;;;8.57;5.43;;;;;;;8.25;63.02;100417.75;5051923;28;20092;-83
2022/11/27 09:01:18;;;;;;;11.40;6.05;;;;;;;8.30;62.62;100412.34;5053497;28;20064;-82
2022/11/27 09:03:45;;;;;;;12.35;6.40;;;;;;;8.36;62.70;100412.13;5052811;28;20151;-83
2022/11/27 09:06:15;;;;;;;8.00;5.68;;;;;;;8.41;62.69;100409.34;5052817;28;20490;-82
2022/11/27 09:08:42;;;;;;;13.43;6.13;;;;;;;8.47;62.24;100412.56;5052636;28;20519;-82
2022/11/27 09:11:10;;;;;;;9.23;6.13;;;;;;;8.52;62.28;100411.53;5052758;28;20148;-81
2022/11/27 09:13:39;;;;;;;9.75;5.88;;;;;;;8.55;62.26;100411.44;5052686;28;20140;-82
2022/11/27 09:16:08;;;;;;;7.32;5.55;;;;;;;8.57;61.95;100410.47;5052333;28;20147;-82
2022/11/27 09:18:36;;;;;;;11.18;6.25;;;;;;;8.62;62.39;100410.31;5034569;28;20455;-83
2022/11/27 09:21:05;;;;;;;10.38;5.95;;;;;;;8.64;62.04;100415.50;5052723;28;20049;-81
2022/11/27 09:23:32;;;;;;;10.18;6.05;;;;;;;8.67;61.86;100412.75;5052683;28;20064;-82
2022/11/27 09:26:01;;;;;;;10.68;6.22;;;;;;;8.67;61.54;100408.34;5052378;28;20045;-82
2022/11/27 09:28:28;;;;;;;9.95;5.80;;;;;;;8.68;61.88;100410.06;5052539;28;20095;-83
2022/11/27 09:30:59;;;;;;;9.38;5.72;;;;;;;8.68;61.73;100410.06;5052270;28;20056;-83
2022/11/27 09:33:27;;;;;;;9.73;6.28;;;;;;;8.69;61.84;100406.53;5052615;28;20056;-82
2022/11/27 09:35:54;;;;;;;9.40;5.78;;;;;;;8.71;61.72;100399.44;5052202;28;20072;-81
2022/11/27 09:38:22;;;;;;;11.13;6.07;;;;;;;8.74;61.92;100403.72;5052229;28;20056;-82
2022/11/27 09:40:51;;;;;;;9.80;6.05;;;;;;;8.73;61.75;100397.63;5052139;28;20052;-83
2022/11/27 09:43:27;;;;;;;7.10;5.75;;;;;;;8.76;61.12;100401.03;5052185;28;20085;-83
2022/11/27 09:46:00;;;;;;;8.50;5.90;;;;;;;8.79;61.24;100411.44;5034522;28;20569;-81
2022/11/27 09:48:32;;;;;;;;;;;;;;;8.81;59.66;100417.47;5052342;28;20053;-81
2022/11/27 09:51:04;;;;;;;10.65;5.10;;;;;;;8.86;60.77;100419.00;5051659;28;19928;-79
2022/11/27 09:53:51;;;;;;;9.50;5.82;;;;;;;8.83;60.75;100423.53;5052119;28;20057;-82
2022/11/27 09:56:19;;;;;;;10.25;6.00;;;;;;;8.85;61.20;100416.44;5050628;28;20136;-82
2022/11/27 09:58:59;;;;;;;11.45;5.57;;;;;;;8.81;59.85;100409.59;5051678;28;20052;-82
2022/11/27 10:01:29;;;;;;;9.40;6.13;;;;;;;8.83;61.32;100424.34;5051872;28;20056;-82
2022/11/27 10:04:09;;;;;;;10.07;6.38;;;;;;;8.84;61.19;100414.72;5051781;28;20131;-81
2022/11/27 10:07:06;;;;;;;9.73;5.68;;;;;;;8.81;60.44;100410.44;5051351;28;20565;-82
2022/11/27 10:09:39;;;;;;;8.88;5.43;;;;;;;8.85;61.03;100405.91;5051635;28;20053;-83
2022/11/27 10:12:36;;;;;;;11.00;5.38;;;;;;;8.84;60.98;100405.09;5051413;28;20057;-81
2022/11/27 10:15:24;;;;;;;11.27;6.20;;;;;;;8.86;60.14;100400.63;5051576;28;20075;-82
2022/11/27 10:18:16;;;;;;;9.52;5.63;;;;;;;8.89;60.74;100402.25;5051265;28;20151;-82
2022/11/27 10:20:48;;;;;;;8.48;5.30;;;;;;;8.93;60.94;100397.78;5051504;28;20059;-82
2022/11/27 10:23:40;;;;;;;9.57;6.13;;;;;;;8.93;60.63;100397.78;5051345;28;20065;-81
2022/11/27 10:26:17;;;;;;;9.65;5.50;;;;;;;8.96;60.93;100389.75;5051271;28;20061;-82
2022/11/27 10:29:10;;;;;;;10.25;5.65;;;;;;;8.97;60.79;100384.44;5051174;28;20052;-83
2022/11/27 10:31:59;;;;;;;8.25;5.00;;;;;;;9.02;60.76;100391.28;5051393;28;20044;-83
2022/11/27 10:34:41;;;;;;;8.88;5.10;;;;;;;9.04;60.58;100389.47;5051270;28;20064;-82
2022/11/27 10:37:11;;;;;;;10.90;5.53;;;;;;;9.09;61.12;100387.50;5033254;28;20057;-82
2022/11/27 10:39:44;;;;;;;7.40;5.22;;;;;;;9.11;61.04;100388.28;5051038;28;20139;-83
2022/11/27 10:42:21;;;;;;;14.82;5.97;;;;;;;9.15;61.34;100389.03;5051263;28;20056;-82
2022/11/27 10:45:02;;;;;;;6.97;4.82;;;;;;;9.14;60.72;100375.03;5050912;28;20064;-82
2022/11/27 10:47:29;;;;;;;7.35;5.35;;;;;;;9.19;61.27;100375.69;5049581;28;20114;-83
2022/11/27 10:50:00;;;;;;;10.23;5.55;;;;;;;9.22;61.42;100374.69;5050974;28;20060;-83
2022/11/27 10:52:26;;;;;;;8.50;5.65;;;;;;;9.24;61.40;100367.63;5050693;28;20118;-82
2022/11/27 10:55:01;;;;;;;12.88;5.55;;;;;;;9.25;60.49;100367.56;5050538;28;20501;-82
2022/11/27 10:57:55;;;;;;;10.85;5.55;;;;;;;9.27;60.87;100358.75;5050485;28;20053;-81
2022/11/27 11:00:23;;;;;;;12.93;4.97;;;;;;;9.33;61.08;100363.75;5122685;22;20052;-80
2022/11/27 11:03:16;;;;;;;8.63;4.80;;;;;;;9.31;59.98;100348.03;5031668;28;20067;-80
2022/11/27 11:05:55;;;;;;;9.18;5.13;;;;;;;9.34;60.41;100355.81;5040570;28;20657;-80
2022/11/27 11:08:41;;;;;;;9.70;5.50;;;;;;;9.40;60.99;100346.81;5034253;28;20494;-80
2022/11/27 11:11:08;;;;;;;7.22;4.65;;;;;;;9.44;61.04;100345.75;5049130;28;20060;-80
2022/11/27 11:13:44;;;;;;;8.93;4.78;;;;;;;9.41;60.43;100343.25;5049321;28;20503;-80
2022/11/27 11:16:11;;;;;;;11.55;4.57;;;;;;;9.49;60.80;100328.00;5049435;28;20488;-80
2022/11/27 11:18:42;;;;;;;7.10;5.20;;;;;;;9.49;60.67;100330.66;5049010;28;20052;-80
2022/11/27 11:21:16;;;;;;;10.55;5.07;;;;;;;9.51;60.07;100326.19;5048934;28;20048;-80
2022/11/27 11:23:45;;;;;;;8.80;5.07;;;;;;;9.55;60.98;100319.00;5049203;28;20152;-80
2022/11/27 11:26:17;;;;;;;7.60;5.03;;;;;;;9.58;60.91;100315.41;5049193;28;20111;-80
2022/11/27 11:28:51;;;;;;;9.85;5.32;;;;;;;9.59;60.52;100306.59;5049304;28;20473;-80
2022/11/27 11:31:20;;;;;;;7.85;4.78;;;;;;;9.62;60.63;100299.44;5049285;28;20519;-80
2022/11/27 11:33:56;;;;;;;8.63;5.30;;;;;;;9.64;60.35;100297.56;5049393;28;20057;-80
2022/11/27 11:36:22;;;;;;;6.35;4.53;;;;;;;9.70;60.97;100306.09;5049261;28;20495;-80
2022/11/27 11:38:50;;;;;;;8.52;4.93;;;;;;;9.71;60.73;100298.16;5031329;28;20079;-80
2022/11/27 11:41:17;;;;;;;6.35;4.50;;;;;;;9.74;60.74;100292.78;5048806;28;20469;-80
2022/11/27 11:43:59;;;;;;;6.43;4.43;;;;;;;9.72;60.07;100286.72;5031361;28;20056;-80
2022/11/27 11:46:31;;;;;;;11.18;3.80;;;;;;;9.78;60.41;100289.09;5048925;28;20551;-80
2022/11/27 11:49:06;;;;;;;7.63;4.80;;;;;;;9.80;59.82;100288.16;5031596;28;20103;-80